SAS289 EKCH-EKBI
Flight info
| Callsign | SAS289 |
|---|---|
| Flight time | N/A |
| Altitude | 16000 |
| Route | ODDON DCT LOKSA |
| Aircraft | A320/M-SDE3FGHIRWY/LB1 |
Departure
| Time | 2026-04-23 20:10 |
|---|---|
| Airport | Copenhagen Kastrup Airport (EKCH) |
Arrival
| Time | N/A |
|---|---|
| Airport | Billund Airport (EKBI) |
| Time | Latitude | Longitude | Altitude | Speed | Heading |
|---|---|---|---|---|---|
| 2026-04-23 19:30 | 55.62695 | 12.64586 | 17 ft | 0 kts | 282° |
| 2026-04-23 19:31 | 55.62696 | 12.64583 | 17 ft | 0 kts | 281° |
| 2026-04-23 19:56 | 55.62692 | 12.64615 | 18 ft | 4 kts | 281° |
| 2026-04-23 19:57 | 55.62688 | 12.64652 | 17 ft | 4 kts | 285° |
| 2026-04-23 19:57 | 55.62677 | 12.64695 | 19 ft | 4 kts | 297° |
| 2026-04-23 19:57 | 55.62670 | 12.64727 | 17 ft | 0 kts | 281° |
| 2026-04-23 19:57 | 55.62671 | 12.64684 | 17 ft | 4 kts | 262° |
| 2026-04-23 19:58 | 55.62655 | 12.64673 | 17 ft | 3 kts | 191° |
| 2026-04-23 19:58 | 55.62629 | 12.64663 | 19 ft | 4 kts | 192° |
| 2026-04-23 19:58 | 55.62617 | 12.64658 | 17 ft | 0 kts | 192° |
| 2026-04-23 20:01 | 55.62614 | 12.64657 | 17 ft | 3 kts | 192° |
| 2026-04-23 20:01 | 55.62582 | 12.64651 | 17 ft | 4 kts | 182° |
| 2026-04-23 20:02 | 55.62552 | 12.64653 | 17 ft | 5 kts | 178° |
| 2026-04-23 20:02 | 55.62524 | 12.64654 | 17 ft | 4 kts | 179° |
| 2026-04-23 20:02 | 55.62502 | 12.64654 | 20 ft | 3 kts | 178° |
| 2026-04-23 20:02 | 55.62447 | 12.64671 | 18 ft | 13 kts | 170° |
| 2026-04-23 20:03 | 55.62366 | 12.64678 | 17 ft | 11 kts | 178° |
| 2026-04-23 20:03 | 55.62311 | 12.64737 | 18 ft | 9 kts | 127° |
| 2026-04-23 20:03 | 55.62271 | 12.64799 | 17 ft | 7 kts | 164° |
| 2026-04-23 20:03 | 55.62225 | 12.64787 | 19 ft | 7 kts | 203° |
| 2026-04-23 20:04 | 55.62181 | 12.64741 | 19 ft | 10 kts | 212° |
| 2026-04-23 20:04 | 55.62116 | 12.64666 | 18 ft | 12 kts | 213° |
| 2026-04-23 20:04 | 55.62047 | 12.64587 | 17 ft | 11 kts | 213° |
| 2026-04-23 20:04 | 55.61985 | 12.64519 | 17 ft | 10 kts | 206° |
| 2026-04-23 20:05 | 55.61924 | 12.64501 | 17 ft | 8 kts | 176° |
| 2026-04-23 20:05 | 55.61865 | 12.64519 | 17 ft | 10 kts | 169° |
| 2026-04-23 20:05 | 55.61777 | 12.64548 | 19 ft | 15 kts | 169° |
| 2026-04-23 20:05 | 55.61672 | 12.64564 | 17 ft | 14 kts | 200° |
| 2026-04-23 20:06 | 55.61578 | 12.64457 | 19 ft | 16 kts | 214° |
| 2026-04-23 20:06 | 55.61489 | 12.64353 | 17 ft | 14 kts | 213° |
| 2026-04-23 20:06 | 55.61403 | 12.64254 | 17 ft | 15 kts | 213° |
| 2026-04-23 20:06 | 55.61322 | 12.64161 | 19 ft | 13 kts | 212° |
| 2026-04-23 20:07 | 55.61249 | 12.64080 | 17 ft | 12 kts | 213° |
| 2026-04-23 20:07 | 55.61186 | 12.64008 | 17 ft | 10 kts | 214° |
| 2026-04-23 20:07 | 55.61117 | 12.63925 | 19 ft | 15 kts | 213° |
| 2026-04-23 20:07 | 55.61012 | 12.63807 | 18 ft | 18 kts | 212° |
| 2026-04-23 20:08 | 55.60908 | 12.63687 | 18 ft | 18 kts | 213° |
| 2026-04-23 20:08 | 55.60805 | 12.63589 | 17 ft | 15 kts | 181° |
| 2026-04-23 20:08 | 55.60732 | 12.63693 | 17 ft | 13 kts | 131° |
| 2026-04-23 20:08 | 55.60679 | 12.63803 | 19 ft | 10 kts | 128° |
| 2026-04-23 20:09 | 55.60685 | 12.63892 | 20 ft | 9 kts | 37° |
| 2026-04-23 20:09 | 55.60832 | 12.64109 | 19 ft | 61 kts | 41° |
| 2026-04-23 20:09 | 55.61331 | 12.64882 | 19 ft | 127 kts | 41° |
| 2026-04-23 20:09 | 55.62122 | 12.66105 | 137 ft | 165 kts | 41° |
| 2026-04-23 20:10 | 55.62687 | 12.66992 | 580 ft | 165 kts | 41° |
| 2026-04-23 20:10 | 55.63881 | 12.68758 | 1451 ft | 169 kts | 28° |
| 2026-04-23 20:10 | 55.64969 | 12.69557 | 2108 ft | 173 kts | 9° |
| 2026-04-23 20:10 | 55.66183 | 12.69805 | 2648 ft | 181 kts | 2° |
| 2026-04-23 20:11 | 55.67485 | 12.70033 | 3068 ft | 196 kts | 1° |
| 2026-04-23 20:11 | 55.68899 | 12.70074 | 3473 ft | 212 kts | 356° |
| 2026-04-23 20:11 | 55.70447 | 12.69968 | 3904 ft | 234 kts | 354° |
| 2026-04-23 20:11 | 55.71545 | 12.69835 | 4331 ft | 243 kts | 354° |